Terminal Aerodrome Forecast
Issued by NWS Duluth, MN

Home | Current Version | Previous Version | Text Only | Print | Product List | Glossary On
Versions: 1 2 3 4 5 6 7 8 9 10 11 12 13 14 15 16 17 18 19 20 21 22 23 24 25 26 27 28 29 30 31 32 33 34 35 36 37 38 39
888
FTUS43 KDLH 051101 AAA
TAFINL
TAF AMD
KINL 051101Z 0511/0606 23008KT 5SM BR OVC012
      TEMPO 0512/0514 3SM -FZDZSN BR OVC008
     FM051500 20004KT 4SM BR BKN008
     FM051700 13005KT P6SM BKN015
     FM052300 09010KT P6SM VCSH OVC015
     FM060100 08012KT 3SM -SN BR OVC008=

USA.gov is the U.S. government's official web portal to all federal, state and local government web resources and services.